sensor_id;sensor_type;location;lat;lon;timestamp;temperature;humidity
32753;DHT22;19121;52.428;10.816;2023-03-01T00:00:14;18.80;36.50
32753;DHT22;19121;52.428;10.816;2023-03-01T00:02:39;18.70;36.40
32753;DHT22;19121;52.428;10.816;2023-03-01T00:05:05;18.70;36.40
32753;DHT22;19121;52.428;10.816;2023-03-01T00:07:32;18.80;36.50
32753;DHT22;19121;52.428;10.816;2023-03-01T00:09:58;18.80;36.40
32753;DHT22;19121;52.428;10.816;2023-03-01T00:12:23;18.80;36.50
32753;DHT22;19121;52.428;10.816;2023-03-01T00:14:49;18.70;36.40
32753;DHT22;19121;52.428;10.816;2023-03-01T00:17:14;18.70;36.40
32753;DHT22;19121;52.428;10.816;2023-03-01T00:19:39;18.70;36.30
32753;DHT22;19121;52.428;10.816;2023-03-01T00:22:05;18.80;36.30
32753;DHT22;19121;52.428;10.816;2023-03-01T00:24:30;18.70;36.20
32753;DHT22;19121;52.428;10.816;2023-03-01T00:26:56;18.70;36.20
32753;DHT22;19121;52.428;10.816;2023-03-01T00:29:22;18.70;36.10
32753;DHT22;19121;52.428;10.816;2023-03-01T00:31:48;18.70;36.10
32753;DHT22;19121;52.428;10.816;2023-03-01T00:34:13;18.70;36.10
32753;DHT22;19121;52.428;10.816;2023-03-01T00:36:39;18.70;36.20
32753;DHT22;19121;52.428;10.816;2023-03-01T00:39:05;18.70;36.10
32753;DHT22;19121;52.428;10.816;2023-03-01T00:41:31;18.70;36.80
32753;DHT22;19121;52.428;10.816;2023-03-01T00:43:56;18.70;36.10
32753;DHT22;19121;52.428;10.816;2023-03-01T00:46:26;18.70;36.10
32753;DHT22;19121;52.428;10.816;2023-03-01T00:48:51;18.70;36.10
32753;DHT22;19121;52.428;10.816;2023-03-01T00:51:18;18.70;36.10
32753;DHT22;19121;52.428;10.816;2023-03-01T00:53:44;18.70;36.10
32753;DHT22;19121;52.428;10.816;2023-03-01T00:56:10;18.70;36.10
32753;DHT22;19121;52.428;10.816;2023-03-01T00:58:36;18.70;36.10
32753;DHT22;19121;52.428;10.816;2023-03-01T01:01:16;18.70;36.20
32753;DHT22;19121;52.428;10.816;2023-03-01T01:03:48;18.60;36.20
32753;DHT22;19121;52.428;10.816;2023-03-01T01:06:21;18.60;36.20
32753;DHT22;19121;52.428;10.816;2023-03-01T01:08:47;18.60;36.20
32753;DHT22;19121;52.428;10.816;2023-03-01T01:11:13;18.60;36.20
32753;DHT22;19121;52.428;10.816;2023-03-01T01:13:38;18.60;36.20
32753;DHT22;19121;52.428;10.816;2023-03-01T01:16:04;18.60;36.20
32753;DHT22;19121;52.428;10.816;2023-03-01T01:18:30;18.60;36.20
32753;DHT22;19121;52.428;10.816;2023-03-01T01:20:55;18.60;36.20
32753;DHT22;19121;52.428;10.816;2023-03-01T01:23:20;18.60;36.20
32753;DHT22;19121;52.428;10.816;2023-03-01T01:25:46;18.50;36.20
32753;DHT22;19121;52.428;10.816;2023-03-01T01:28:11;18.50;36.20
32753;DHT22;19121;52.428;10.816;2023-03-01T01:30:38;18.50;36.20
32753;DHT22;19121;52.428;10.816;2023-03-01T01:33:04;18.50;36.20
32753;DHT22;19121;52.428;10.816;2023-03-01T01:35:29;18.50;36.20
32753;DHT22;19121;52.428;10.816;2023-03-01T01:37:55;18.50;36.20
32753;DHT22;19121;52.428;10.816;2023-03-01T01:40:20;18.50;36.10
32753;DHT22;19121;52.428;10.816;2023-03-01T01:42:45;18.50;36.10
32753;DHT22;19121;52.428;10.816;2023-03-01T01:47:49;18.50;36.00
32753;DHT22;19121;52.428;10.816;2023-03-01T01:50:15;18.50;36.00
32753;DHT22;19121;52.428;10.816;2023-03-01T01:52:42;18.50;36.00
32753;DHT22;19121;52.428;10.816;2023-03-01T01:55:08;18.50;36.00
32753;DHT22;19121;52.428;10.816;2023-03-01T01:57:36;18.50;36.00
32753;DHT22;19121;52.428;10.816;2023-03-01T02:00:12;18.50;35.90
32753;DHT22;19121;52.428;10.816;2023-03-01T02:02:38;18.50;35.90
32753;DHT22;19121;52.428;10.816;2023-03-01T02:05:26;18.50;35.90
32753;DHT22;19121;52.428;10.816;2023-03-01T02:07:50;18.50;35.90
32753;DHT22;19121;52.428;10.816;2023-03-01T02:10:15;18.50;35.90
32753;DHT22;19121;52.428;10.816;2023-03-01T02:12:41;18.50;35.90
32753;DHT22;19121;52.428;10.816;2023-03-01T02:15:06;18.50;35.80
32753;DHT22;19121;52.428;10.816;2023-03-01T02:17:32;18.50;35.80
32753;DHT22;19121;52.428;10.816;2023-03-01T02:20:00;18.50;35.80
32753;DHT22;19121;52.428;10.816;2023-03-01T02:22:32;18.50;35.80
32753;DHT22;19121;52.428;10.816;2023-03-01T02:30:17;18.40;35.80
32753;DHT22;19121;52.428;10.816;2023-03-01T02:32:43;18.40;35.90
32753;DHT22;19121;52.428;10.816;2023-03-01T02:35:10;18.40;35.90
32753;DHT22;19121;52.428;10.816;2023-03-01T02:37:37;18.40;35.90
32753;DHT22;19121;52.428;10.816;2023-03-01T02:40:04;18.40;35.90
32753;DHT22;19121;52.428;10.816;2023-03-01T02:42:33;18.40;35.90
32753;DHT22;19121;52.428;10.816;2023-03-01T02:44:59;18.40;35.90
32753;DHT22;19121;52.428;10.816;2023-03-01T02:47:24;18.40;36.00
32753;DHT22;19121;52.428;10.816;2023-03-01T02:49:50;18.40;35.90
32753;DHT22;19121;52.428;10.816;2023-03-01T02:52:34;18.30;35.80
32753;DHT22;19121;52.428;10.816;2023-03-01T02:55:10;18.30;35.90
32753;DHT22;19121;52.428;10.816;2023-03-01T02:57:36;18.30;35.80
32753;DHT22;19121;52.428;10.816;2023-03-01T03:00:04;18.30;35.90
32753;DHT22;19121;52.428;10.816;2023-03-01T03:02:34;18.30;35.90
32753;DHT22;19121;52.428;10.816;2023-03-01T03:05:07;18.30;35.90
32753;DHT22;19121;52.428;10.816;2023-03-01T03:07:34;18.30;35.90
32753;DHT22;19121;52.428;10.816;2023-03-01T03:10:01;18.30;35.80
32753;DHT22;19121;52.428;10.816;2023-03-01T03:12:27;18.30;35.80
32753;DHT22;19121;52.428;10.816;2023-03-01T03:14:52;18.30;35.80
32753;DHT22;19121;52.428;10.816;2023-03-01T03:17:17;18.30;35.80
32753;DHT22;19121;52.428;10.816;2023-03-01T03:19:43;18.30;35.80
32753;DHT22;19121;52.428;10.816;2023-03-01T03:22:13;18.30;35.70
32753;DHT22;19121;52.428;10.816;2023-03-01T03:24:39;18.30;35.70
32753;DHT22;19121;52.428;10.816;2023-03-01T03:27:05;18.30;35.70
32753;DHT22;19121;52.428;10.816;2023-03-01T03:29:30;18.30;35.70
32753;DHT22;19121;52.428;10.816;2023-03-01T03:31:56;18.30;35.60
32753;DHT22;19121;52.428;10.816;2023-03-01T03:34:21;18.30;35.60
32753;DHT22;19121;52.428;10.816;2023-03-01T03:36:47;18.30;35.50
32753;DHT22;19121;52.428;10.816;2023-03-01T03:39:12;18.30;35.50
32753;DHT22;19121;52.428;10.816;2023-03-01T03:41:38;18.30;35.50
32753;DHT22;19121;52.428;10.816;2023-03-01T03:44:03;18.30;35.50
32753;DHT22;19121;52.428;10.816;2023-03-01T03:46:29;18.30;35.50
32753;DHT22;19121;52.428;10.816;2023-03-01T03:48:54;18.30;35.50
32753;DHT22;19121;52.428;10.816;2023-03-01T03:51:20;18.30;35.60
32753;DHT22;19121;52.428;10.816;2023-03-01T03:53:48;18.30;35.60
32753;DHT22;19121;52.428;10.816;2023-03-01T03:56:13;18.30;35.60
32753;DHT22;19121;52.428;10.816;2023-03-01T03:58:39;18.30;35.60
32753;DHT22;19121;52.428;10.816;2023-03-01T04:01:04;18.30;35.60
32753;DHT22;19121;52.428;10.816;2023-03-01T04:03:30;18.20;35.60
32753;DHT22;19121;52.428;10.816;2023-03-01T04:06:00;18.20;35.60
32753;DHT22;19121;52.428;10.816;2023-03-01T04:08:26;18.20;35.60
32753;DHT22;19121;52.428;10.816;2023-03-01T04:10:55;18.20;35.60
32753;DHT22;19121;52.428;10.816;2023-03-01T04:13:21;18.20;35.60
32753;DHT22;19121;52.428;10.816;2023-03-01T04:15:53;18.20;36.20
32753;DHT22;19121;52.428;10.816;2023-03-01T04:18:20;18.20;35.60
32753;DHT22;19121;52.428;10.816;2023-03-01T04:20:45;18.20;35.60
32753;DHT22;19121;52.428;10.816;2023-03-01T04:23:12;18.20;35.60
32753;DHT22;19121;52.428;10.816;2023-03-01T04:25:50;18.20;35.60
32753;DHT22;19121;52.428;10.816;2023-03-01T04:28:30;18.20;35.60
32753;DHT22;19121;52.428;10.816;2023-03-01T04:30:58;18.20;35.60
32753;DHT22;19121;52.428;10.816;2023-03-01T04:33:24;18.10;35.60
32753;DHT22;19121;52.428;10.816;2023-03-01T04:35:49;18.10;35.50
32753;DHT22;19121;52.428;10.816;2023-03-01T04:38:15;18.20;35.60
32753;DHT22;19121;52.428;10.816;2023-03-01T04:40:41;18.10;35.50
32753;DHT22;19121;52.428;10.816;2023-03-01T04:43:08;18.20;35.60
32753;DHT22;19121;52.428;10.816;2023-03-01T04:45:34;18.10;35.50
32753;DHT22;19121;52.428;10.816;2023-03-01T04:47:59;18.10;35.50
32753;DHT22;19121;52.428;10.816;2023-03-01T04:50:25;18.20;35.40
32753;DHT22;19121;52.428;10.816;2023-03-01T04:52:51;18.20;35.40
32753;DHT22;19121;52.428;10.816;2023-03-01T04:55:16;18.20;35.40
32753;DHT22;19121;52.428;10.816;2023-03-01T04:57:42;18.20;35.30
32753;DHT22;19121;52.428;10.816;2023-03-01T05:00:09;18.20;35.30
32753;DHT22;19121;52.428;10.816;2023-03-01T05:02:54;18.20;35.20
32753;DHT22;19121;52.428;10.816;2023-03-01T05:05:25;18.20;35.30
32753;DHT22;19121;52.428;10.816;2023-03-01T05:07:52;18.20;35.20
32753;DHT22;19121;52.428;10.816;2023-03-01T05:10:17;18.20;35.20
32753;DHT22;19121;52.428;10.816;2023-03-01T05:12:42;18.20;35.20
32753;DHT22;19121;52.428;10.816;2023-03-01T05:15:08;18.20;35.20
32753;DHT22;19121;52.428;10.816;2023-03-01T05:17:34;18.20;35.20
32753;DHT22;19121;52.428;10.816;2023-03-01T05:19:59;18.20;35.20
32753;DHT22;19121;52.428;10.816;2023-03-01T05:22:25;18.20;35.20
32753;DHT22;19121;52.428;10.816;2023-03-01T05:24:51;18.20;35.30
32753;DHT22;19121;52.428;10.816;2023-03-01T05:27:16;18.20;35.30
32753;DHT22;19121;52.428;10.816;2023-03-01T05:29:42;18.20;35.30
32753;DHT22;19121;52.428;10.816;2023-03-01T05:32:07;18.10;35.20
32753;DHT22;19121;52.428;10.816;2023-03-01T05:34:35;18.10;35.20
32753;DHT22;19121;52.428;10.816;2023-03-01T05:37:01;18.10;35.20
32753;DHT22;19121;52.428;10.816;2023-03-01T05:39:28;18.10;35.20
32753;DHT22;19121;52.428;10.816;2023-03-01T05:41:57;18.10;35.20
32753;DHT22;19121;52.428;10.816;2023-03-01T05:44:23;18.10;35.20
32753;DHT22;19121;52.428;10.816;2023-03-01T05:46:49;18.10;35.30
32753;DHT22;19121;52.428;10.816;2023-03-01T05:49:15;18.10;35.20
32753;DHT22;19121;52.428;10.816;2023-03-01T05:51:41;18.10;35.30
32753;DHT22;19121;52.428;10.816;2023-03-01T05:54:06;18.10;35.30
32753;DHT22;19121;52.428;10.816;2023-03-01T05:56:35;18.10;35.30
32753;DHT22;19121;52.428;10.816;2023-03-01T05:59:01;18.10;35.30
32753;DHT22;19121;52.428;10.816;2023-03-01T06:01:27;18.10;35.30
32753;DHT22;19121;52.428;10.816;2023-03-01T06:03:52;18.00;35.20
32753;DHT22;19121;52.428;10.816;2023-03-01T06:06:18;18.10;35.30
32753;DHT22;19121;52.428;10.816;2023-03-01T06:08:43;18.00;35.20
32753;DHT22;19121;52.428;10.816;2023-03-01T06:11:09;18.10;35.20
32753;DHT22;19121;52.428;10.816;2023-03-01T06:13:34;18.00;35.20
32753;DHT22;19121;52.428;10.816;2023-03-01T06:15:59;18.00;35.20
32753;DHT22;19121;52.428;10.816;2023-03-01T06:18:25;18.10;35.20
32753;DHT22;19121;52.428;10.816;2023-03-01T06:20:53;18.10;35.10
32753;DHT22;19121;52.428;10.816;2023-03-01T06:23:19;18.10;35.10
32753;DHT22;19121;52.428;10.816;2023-03-01T06:25:44;18.10;35.10
32753;DHT22;19121;52.428;10.816;2023-03-01T06:28:10;18.10;35.00
32753;DHT22;19121;52.428;10.816;2023-03-01T06:30:35;18.10;35.00
32753;DHT22;19121;52.428;10.816;2023-03-01T06:33:01;18.10;35.00
32753;DHT22;19121;52.428;10.816;2023-03-01T06:35:28;18.10;35.00
32753;DHT22;19121;52.428;10.816;2023-03-01T06:37:58;18.10;34.90
32753;DHT22;19121;52.428;10.816;2023-03-01T06:40:23;18.10;34.90
32753;DHT22;19121;52.428;10.816;2023-03-01T06:42:49;18.20;35.00
32753;DHT22;19121;52.428;10.816;2023-03-01T06:45:15;18.20;35.10
32753;DHT22;19121;52.428;10.816;2023-03-01T06:47:41;18.10;35.00
32753;DHT22;19121;52.428;10.816;2023-03-01T06:50:06;18.10;35.10
32753;DHT22;19121;52.428;10.816;2023-03-01T06:52:32;18.10;35.10
32753;DHT22;19121;52.428;10.816;2023-03-01T06:54:58;18.10;35.20
32753;DHT22;19121;52.428;10.816;2023-03-01T06:57:23;18.10;35.30
32753;DHT22;19121;52.428;10.816;2023-03-01T06:59:49;18.20;35.30
32753;DHT22;19121;52.428;10.816;2023-03-01T07:02:14;18.10;35.30
32753;DHT22;19121;52.428;10.816;2023-03-01T07:04:40;18.20;35.40
32753;DHT22;19121;52.428;10.816;2023-03-01T07:07:06;18.20;35.30
32753;DHT22;19121;52.428;10.816;2023-03-01T07:09:31;18.20;35.20
32753;DHT22;19121;52.428;10.816;2023-03-01T07:11:57;18.30;35.20
32753;DHT22;19121;52.428;10.816;2023-03-01T07:14:23;18.30;35.10
32753;DHT22;19121;52.428;10.816;2023-03-01T07:16:54;18.30;35.00
32753;DHT22;19121;52.428;10.816;2023-03-01T07:19:19;18.40;35.10
32753;DHT22;19121;52.428;10.816;2023-03-01T07:21:45;18.40;35.10
32753;DHT22;19121;52.428;10.816;2023-03-01T07:24:11;18.40;35.10
32753;DHT22;19121;52.428;10.816;2023-03-01T07:26:37;18.50;35.10
32753;DHT22;19121;52.428;10.816;2023-03-01T07:29:03;18.50;35.10
32753;DHT22;19121;52.428;10.816;2023-03-01T07:31:29;18.50;35.10
32753;DHT22;19121;52.428;10.816;2023-03-01T07:33:54;18.50;35.10
32753;DHT22;19121;52.428;10.816;2023-03-01T07:36:20;18.60;35.00
32753;DHT22;19121;52.428;10.816;2023-03-01T07:38:45;18.70;35.00
32753;DHT22;19121;52.428;10.816;2023-03-01T07:41:11;18.70;35.20
32753;DHT22;19121;52.428;10.816;2023-03-01T07:43:36;18.80;35.10
32753;DHT22;19121;52.428;10.816;2023-03-01T07:46:02;18.90;34.90
32753;DHT22;19121;52.428;10.816;2023-03-01T07:48:28;18.90;34.60
32753;DHT22;19121;52.428;10.816;2023-03-01T07:50:53;19.00;34.60
32753;DHT22;19121;52.428;10.816;2023-03-01T07:53:19;19.00;34.40
32753;DHT22;19121;52.428;10.816;2023-03-01T07:55:44;19.10;34.40
32753;DHT22;19121;52.428;10.816;2023-03-01T07:58:10;19.20;34.30
32753;DHT22;19121;52.428;10.816;2023-03-01T08:00:35;19.20;34.20
32753;DHT22;19121;52.428;10.816;2023-03-01T08:03:01;19.20;34.20
32753;DHT22;19121;52.428;10.816;2023-03-01T08:05:26;19.30;34.20
32753;DHT22;19121;52.428;10.816;2023-03-01T08:07:52;19.40;34.20
32753;DHT22;19121;52.428;10.816;2023-03-01T08:10:18;19.40;34.10
32753;DHT22;19121;52.428;10.816;2023-03-01T08:12:43;19.50;34.10
32753;DHT22;19121;52.428;10.816;2023-03-01T08:15:09;19.50;34.00
32753;DHT22;19121;52.428;10.816;2023-03-01T08:17:34;19.60;34.00
32753;DHT22;19121;52.428;10.816;2023-03-01T08:20:00;19.60;34.00
32753;DHT22;19121;52.428;10.816;2023-03-01T08:22:25;19.60;33.90
32753;DHT22;19121;52.428;10.816;2023-03-01T08:24:51;19.70;33.80
32753;DHT22;19121;52.428;10.816;2023-03-01T08:27:16;19.70;33.90
32753;DHT22;19121;52.428;10.816;2023-03-01T08:29:42;19.70;33.80
32753;DHT22;19121;52.428;10.816;2023-03-01T08:32:07;19.80;33.90
32753;DHT22;19121;52.428;10.816;2023-03-01T08:34:33;19.80;33.90
32753;DHT22;19121;52.428;10.816;2023-03-01T08:37:00;19.90;33.80
32753;DHT22;19121;52.428;10.816;2023-03-01T08:39:26;19.90;33.70
32753;DHT22;19121;52.428;10.816;2023-03-01T08:41:52;19.90;33.70
32753;DHT22;19121;52.428;10.816;2023-03-01T08:44:18;20.00;33.70
32753;DHT22;19121;52.428;10.816;2023-03-01T08:46:43;20.00;33.70
32753;DHT22;19121;52.428;10.816;2023-03-01T08:49:16;20.10;33.70
32753;DHT22;19121;52.428;10.816;2023-03-01T08:51:43;20.10;33.70
32753;DHT22;19121;52.428;10.816;2023-03-01T08:54:13;20.10;33.70
32753;DHT22;19121;52.428;10.816;2023-03-01T08:56:40;20.10;33.70
32753;DHT22;19121;52.428;10.816;2023-03-01T08:59:06;20.20;33.60
32753;DHT22;19121;52.428;10.816;2023-03-01T09:01:31;20.30;33.60
32753;DHT22;19121;52.428;10.816;2023-03-01T09:03:57;20.30;33.50
32753;DHT22;19121;52.428;10.816;2023-03-01T09:06:22;20.30;33.50
32753;DHT22;19121;52.428;10.816;2023-03-01T09:08:48;20.30;33.60
32753;DHT22;19121;52.428;10.816;2023-03-01T09:11:16;20.40;34.20
32753;DHT22;19121;52.428;10.816;2023-03-01T09:13:42;20.40;33.60
32753;DHT22;19121;52.428;10.816;2023-03-01T09:16:08;20.40;33.50
32753;DHT22;19121;52.428;10.816;2023-03-01T09:18:34;20.50;33.50
32753;DHT22;19121;52.428;10.816;2023-03-01T09:21:00;20.50;33.50
32753;DHT22;19121;52.428;10.816;2023-03-01T09:23:26;20.50;33.40
32753;DHT22;19121;52.428;10.816;2023-03-01T09:25:52;20.60;33.40
32753;DHT22;19121;52.428;10.816;2023-03-01T09:28:17;20.60;33.40
32753;DHT22;19121;52.428;10.816;2023-03-01T09:30:43;20.60;33.40
32753;DHT22;19121;52.428;10.816;2023-03-01T09:33:08;20.60;33.30
32753;DHT22;19121;52.428;10.816;2023-03-01T09:35:39;20.70;33.40
32753;DHT22;19121;52.428;10.816;2023-03-01T09:38:11;20.70;33.50
32753;DHT22;19121;52.428;10.816;2023-03-01T09:40:37;20.70;33.50
32753;DHT22;19121;52.428;10.816;2023-03-01T09:43:27;20.80;33.60
32753;DHT22;19121;52.428;10.816;2023-03-01T09:45:58;20.80;33.70
32753;DHT22;19121;52.428;10.816;2023-03-01T09:48:26;20.80;33.70
32753;DHT22;19121;52.428;10.816;2023-03-01T09:50:52;20.80;33.70
32753;DHT22;19121;52.428;10.816;2023-03-01T09:53:22;20.90;33.80
32753;DHT22;19121;52.428;10.816;2023-03-01T09:55:49;20.90;34.40
32753;DHT22;19121;52.428;10.816;2023-03-01T10:00:44;20.90;33.70
32753;DHT22;19121;52.428;10.816;2023-03-01T10:03:15;20.90;33.60
32753;DHT22;19121;52.428;10.816;2023-03-01T10:10:37;21.00;33.50
32753;DHT22;19121;52.428;10.816;2023-03-01T10:13:04;21.00;33.50
32753;DHT22;19121;52.428;10.816;2023-03-01T10:15:37;21.10;33.60
32753;DHT22;19121;52.428;10.816;2023-03-01T10:18:06;21.00;33.70
32753;DHT22;19121;52.428;10.816;2023-03-01T10:23:10;21.10;34.00
32753;DHT22;19121;52.428;10.816;2023-03-01T10:28:10;21.10;34.00
32753;DHT22;19121;52.428;10.816;2023-03-01T10:30:38;21.10;34.00
32753;DHT22;19121;52.428;10.816;2023-03-01T10:33:14;21.10;34.00
32753;DHT22;19121;52.428;10.816;2023-03-01T10:35:41;21.10;34.00
32753;DHT22;19121;52.428;10.816;2023-03-01T10:38:13;21.10;34.00
32753;DHT22;19121;52.428;10.816;2023-03-01T10:40:50;21.10;34.10
32753;DHT22;19121;52.428;10.816;2023-03-01T10:43:16;21.20;34.10
32753;DHT22;19121;52.428;10.816;2023-03-01T10:45:42;21.10;34.10
32753;DHT22;19121;52.428;10.816;2023-03-01T10:50:33;21.20;34.10
32753;DHT22;19121;52.428;10.816;2023-03-01T10:53:09;21.10;34.10
32753;DHT22;19121;52.428;10.816;2023-03-01T10:55:42;21.20;34.10
32753;DHT22;19121;52.428;10.816;2023-03-01T10:58:18;21.10;34.10
32753;DHT22;19121;52.428;10.816;2023-03-01T11:00:46;21.10;34.10
32753;DHT22;19121;52.428;10.816;2023-03-01T11:03:13;21.20;34.20
32753;DHT22;19121;52.428;10.816;2023-03-01T11:05:53;21.20;34.20
32753;DHT22;19121;52.428;10.816;2023-03-01T11:08:35;21.20;34.20
32753;DHT22;19121;52.428;10.816;2023-03-01T11:13:55;21.20;34.30
32753;DHT22;19121;52.428;10.816;2023-03-01T11:16:31;21.20;34.40
32753;DHT22;19121;52.428;10.816;2023-03-01T11:18:58;21.20;34.40
32753;DHT22;19121;52.428;10.816;2023-03-01T11:21:24;21.20;34.40
32753;DHT22;19121;52.428;10.816;2023-03-01T11:23:50;21.20;34.40
32753;DHT22;19121;52.428;10.816;2023-03-01T11:26:16;21.20;34.40
32753;DHT22;19121;52.428;10.816;2023-03-01T11:28:42;21.20;34.40
32753;DHT22;19121;52.428;10.816;2023-03-01T11:31:10;21.20;34.40
32753;DHT22;19121;52.428;10.816;2023-03-01T11:33:48;21.20;34.50
32753;DHT22;19121;52.428;10.816;2023-03-01T11:38:40;21.20;34.50
32753;DHT22;19121;52.428;10.816;2023-03-01T11:41:06;21.20;34.50
32753;DHT22;19121;52.428;10.816;2023-03-01T11:46:23;21.20;34.40
32753;DHT22;19121;52.428;10.816;2023-03-01T11:48:54;21.20;34.50
32753;DHT22;19121;52.428;10.816;2023-03-01T11:51:37;21.20;34.40
32753;DHT22;19121;52.428;10.816;2023-03-01T11:57:12;21.20;34.50
32753;DHT22;19121;52.428;10.816;2023-03-01T11:59:44;21.10;35.10
32753;DHT22;19121;52.428;10.816;2023-03-01T12:02:24;21.10;34.50
32753;DHT22;19121;52.428;10.816;2023-03-01T12:04:55;21.10;34.60
32753;DHT22;19121;52.428;10.816;2023-03-01T12:12:23;21.20;34.60
32753;DHT22;19121;52.428;10.816;2023-03-01T12:14:53;21.20;34.60
32753;DHT22;19121;52.428;10.816;2023-03-01T12:17:36;21.20;34.50
32753;DHT22;19121;52.428;10.816;2023-03-01T12:25:43;21.20;34.50
32753;DHT22;19121;52.428;10.816;2023-03-01T12:28:30;21.20;34.50
32753;DHT22;19121;52.428;10.816;2023-03-01T12:33:43;21.20;34.50
32753;DHT22;19121;52.428;10.816;2023-03-01T12:36:25;21.20;34.50
32753;DHT22;19121;52.428;10.816;2023-03-01T12:42:02;21.10;34.50
32753;DHT22;19121;52.428;10.816;2023-03-01T12:44:15;21.10;34.60
32753;DHT22;19121;52.428;10.816;2023-03-01T12:54:50;21.10;34.70
32753;DHT22;19121;52.428;10.816;2023-03-01T12:59:51;21.00;34.80
32753;DHT22;19121;52.428;10.816;2023-03-01T13:02:36;21.00;34.80
32753;DHT22;19121;52.428;10.816;2023-03-01T13:07:51;21.00;35.00
32753;DHT22;19121;52.428;10.816;2023-03-01T13:17:48;20.90;35.10
32753;DHT22;19121;52.428;10.816;2023-03-01T13:20:15;20.80;35.10
32753;DHT22;19121;52.428;10.816;2023-03-01T13:22:42;20.80;35.20
32753;DHT22;19121;52.428;10.816;2023-03-01T13:25:15;20.80;35.20
32753;DHT22;19121;52.428;10.816;2023-03-01T13:27:41;20.80;35.30
32753;DHT22;19121;52.428;10.816;2023-03-01T13:30:37;20.80;35.30
32753;DHT22;19121;52.428;10.816;2023-03-01T13:32:52;20.80;35.40
32753;DHT22;19121;52.428;10.816;2023-03-01T13:37:43;20.70;35.50
32753;DHT22;19121;52.428;10.816;2023-03-01T13:42:44;20.70;35.40
32753;DHT22;19121;52.428;10.816;2023-03-01T13:45:21;20.70;35.50
32753;DHT22;19121;52.428;10.816;2023-03-01T13:47:49;20.70;35.50
32753;DHT22;19121;52.428;10.816;2023-03-01T13:50:18;20.70;35.50
32753;DHT22;19121;52.428;10.816;2023-03-01T13:52:50;20.70;35.40
32753;DHT22;19121;52.428;10.816;2023-03-01T13:55:36;20.70;35.50
32753;DHT22;19121;52.428;10.816;2023-03-01T13:58:04;20.70;35.50
32753;DHT22;19121;52.428;10.816;2023-03-01T14:00:31;20.70;35.50
32753;DHT22;19121;52.428;10.816;2023-03-01T14:03:16;20.70;35.50
32753;DHT22;19121;52.428;10.816;2023-03-01T14:05:44;20.70;35.50
32753;DHT22;19121;52.428;10.816;2023-03-01T14:08:20;20.60;35.50
32753;DHT22;19121;52.428;10.816;2023-03-01T14:13:32;20.60;35.50
32753;DHT22;19121;52.428;10.816;2023-03-01T14:18:36;20.60;35.50
32753;DHT22;19121;52.428;10.816;2023-03-01T14:21:07;20.60;35.50
32753;DHT22;19121;52.428;10.816;2023-03-01T14:23:33;20.60;35.50
32753;DHT22;19121;52.428;10.816;2023-03-01T14:26:00;20.60;35.50
32753;DHT22;19121;52.428;10.816;2023-03-01T14:28:29;20.60;35.50
32753;DHT22;19121;52.428;10.816;2023-03-01T14:30:56;20.60;35.50
32753;DHT22;19121;52.428;10.816;2023-03-01T14:33:28;20.60;35.50
32753;DHT22;19121;52.428;10.816;2023-03-01T14:36:04;20.60;35.50
32753;DHT22;19121;52.428;10.816;2023-03-01T14:38:32;20.60;35.50
32753;DHT22;19121;52.428;10.816;2023-03-01T14:41:01;20.60;35.50
32753;DHT22;19121;52.428;10.816;2023-03-01T14:43:27;20.60;36.10
32753;DHT22;19121;52.428;10.816;2023-03-01T14:45:54;20.60;35.50
32753;DHT22;19121;52.428;10.816;2023-03-01T14:48:20;20.50;36.10
32753;DHT22;19121;52.428;10.816;2023-03-01T14:50:45;20.50;35.50
32753;DHT22;19121;52.428;10.816;2023-03-01T14:53:15;20.60;35.50
32753;DHT22;19121;52.428;10.816;2023-03-01T14:55:42;20.50;35.50
32753;DHT22;19121;52.428;10.816;2023-03-01T14:58:14;20.50;35.50
32753;DHT22;19121;52.428;10.816;2023-03-01T15:00:43;20.50;35.60
32753;DHT22;19121;52.428;10.816;2023-03-01T15:03:14;20.50;35.60
32753;DHT22;19121;52.428;10.816;2023-03-01T15:05:44;20.50;35.50
32753;DHT22;19121;52.428;10.816;2023-03-01T15:08:16;20.50;35.50
32753;DHT22;19121;52.428;10.816;2023-03-01T15:10:54;20.50;35.50
32753;DHT22;19121;52.428;10.816;2023-03-01T15:13:24;20.50;35.40
32753;DHT22;19121;52.428;10.816;2023-03-01T15:15:50;20.50;35.50
32753;DHT22;19121;52.428;10.816;2023-03-01T15:18:18;20.40;35.90
32753;DHT22;19121;52.428;10.816;2023-03-01T15:20:44;20.50;36.40
32753;DHT22;19121;52.428;10.816;2023-03-01T15:23:17;20.40;36.90
32753;DHT22;19121;52.428;10.816;2023-03-01T15:25:43;20.40;37.20
32753;DHT22;19121;52.428;10.816;2023-03-01T15:28:17;20.40;37.30
32753;DHT22;19121;52.428;10.816;2023-03-01T15:30:44;20.40;37.10
32753;DHT22;19121;52.428;10.816;2023-03-01T15:33:17;20.40;37.50
32753;DHT22;19121;52.428;10.816;2023-03-01T15:35:48;20.50;37.40
32753;DHT22;19121;52.428;10.816;2023-03-01T15:38:24;20.40;37.20
32753;DHT22;19121;52.428;10.816;2023-03-01T15:40:50;20.50;37.30
32753;DHT22;19121;52.428;10.816;2023-03-01T15:45:59;20.50;37.00
32753;DHT22;19121;52.428;10.816;2023-03-01T15:48:25;20.50;36.80
32753;DHT22;19121;52.428;10.816;2023-03-01T15:50:58;20.50;36.80
32753;DHT22;19121;52.428;10.816;2023-03-01T15:53:24;20.50;36.90
32753;DHT22;19121;52.428;10.816;2023-03-01T15:55:51;20.50;36.70
32753;DHT22;19121;52.428;10.816;2023-03-01T15:58:21;20.50;36.60
32753;DHT22;19121;52.428;10.816;2023-03-01T16:00:47;20.50;36.70
32753;DHT22;19121;52.428;10.816;2023-03-01T16:03:14;20.50;36.80
32753;DHT22;19121;52.428;10.816;2023-03-01T16:05:39;20.50;36.80
32753;DHT22;19121;52.428;10.816;2023-03-01T16:08:05;20.50;36.90
32753;DHT22;19121;52.428;10.816;2023-03-01T16:10:31;20.50;37.10
32753;DHT22;19121;52.428;10.816;2023-03-01T16:12:57;20.50;36.90
32753;DHT22;19121;52.428;10.816;2023-03-01T16:15:25;20.40;36.80
32753;DHT22;19121;52.428;10.816;2023-03-01T16:17:51;20.40;36.80
32753;DHT22;19121;52.428;10.816;2023-03-01T16:20:17;20.40;36.80
32753;DHT22;19121;52.428;10.816;2023-03-01T16:22:43;20.40;36.70
32753;DHT22;19121;52.428;10.816;2023-03-01T16:25:12;20.40;36.60
32753;DHT22;19121;52.428;10.816;2023-03-01T16:27:38;20.40;36.60
32753;DHT22;19121;52.428;10.816;2023-03-01T16:30:04;20.40;36.60
32753;DHT22;19121;52.428;10.816;2023-03-01T16:32:30;20.30;36.60
32753;DHT22;19121;52.428;10.816;2023-03-01T16:34:55;20.30;36.60
32753;DHT22;19121;52.428;10.816;2023-03-01T16:37:21;20.30;36.50
32753;DHT22;19121;52.428;10.816;2023-03-01T16:39:47;20.30;36.60
32753;DHT22;19121;52.428;10.816;2023-03-01T16:42:14;20.30;36.70